createdAt,value
2022-10-17T00:00:36.441Z,10.14
2022-10-17T00:01:36.513Z,10.10
2022-10-17T00:02:36.419Z,10.07
2022-10-17T00:03:36.401Z,9.96
2022-10-17T00:04:36.412Z,10.06
2022-10-17T00:05:36.460Z,10.09
2022-10-17T00:06:36.372Z,10.01
2022-10-17T00:07:36.360Z,10.13
2022-10-17T00:08:36.351Z,9.99
2022-10-17T00:09:36.340Z,10.06
2022-10-17T00:10:36.329Z,10.06
2022-10-17T00:11:36.386Z,10.13
2022-10-17T00:12:36.327Z,10.10
2022-10-17T00:13:36.301Z,10.10
2022-10-17T00:14:36.280Z,10.10
2022-10-17T00:15:36.265Z,10.11
2022-10-17T00:16:36.260Z,10.17
2022-10-17T00:17:36.261Z,10.17
2022-10-17T00:18:36.300Z,10.07
2022-10-17T00:19:36.265Z,10.14
2022-10-17T00:20:36.215Z,10.06
2022-10-17T00:21:36.205Z,9.99
2022-10-17T00:23:36.190Z,9.98
2022-10-17T00:24:36.174Z,10.04
2022-10-17T00:25:36.178Z,9.99
2022-10-17T00:26:36.214Z,9.99
2022-10-17T00:27:36.137Z,10.10
2022-10-17T00:28:36.187Z,10.06
2022-10-17T00:29:36.161Z,10.04
2022-10-17T00:30:36.105Z,10.04
2022-10-17T00:31:36.178Z,9.99
2022-10-17T00:32:36.086Z,10.07
2022-10-17T00:33:36.071Z,10.06
2022-10-17T00:34:36.060Z,9.95
2022-10-17T00:35:36.051Z,9.95
2022-10-17T00:36:36.051Z,9.99
2022-10-17T00:37:36.094Z,10.02
2022-10-17T00:38:36.013Z,9.95
2022-10-17T00:39:36.005Z,10.07
2022-10-17T00:40:36.007Z,9.98
2022-10-17T00:41:36.103Z,10.07
2022-10-17T00:42:35.975Z,10.06
2022-10-17T00:43:36.019Z,9.99
2022-10-17T00:44:35.975Z,10.02
2022-10-17T00:45:35.938Z,10.04
2022-10-17T00:46:35.934Z,9.99
2022-10-17T00:47:35.933Z,10.02
2022-10-17T00:48:35.909Z,10.02
2022-10-17T00:49:35.959Z,10.07
2022-10-17T00:50:35.888Z,9.99
2022-10-17T00:51:35.875Z,10.01
2022-10-17T00:52:35.878Z,9.96
2022-10-17T00:53:35.855Z,9.99
2022-10-17T00:54:35.868Z,9.98
2022-10-17T00:55:35.846Z,9.96
2022-10-17T00:56:35.825Z,10.02
2022-10-17T00:57:35.827Z,9.93
2022-10-17T00:58:35.801Z,9.96
2022-10-17T00:59:35.796Z,10.02
2022-10-17T01:00:35.805Z,10.07
2022-10-17T01:01:35.856Z,9.98
2022-10-17T01:02:35.767Z,9.91
2022-10-17T01:03:35.747Z,9.99
2022-10-17T01:04:35.734Z,9.95
2022-10-17T01:05:35.726Z,9.93
2022-10-17T01:06:35.719Z,9.91
2022-10-17T01:07:37.226Z,9.98
2022-10-17T01:08:35.693Z,9.98
2022-10-17T01:09:35.908Z,9.95
2022-10-17T01:10:35.673Z,9.95
2022-10-17T01:11:35.663Z,10.04
2022-10-17T01:12:35.646Z,9.88
2022-10-17T01:13:35.649Z,9.93
2022-10-17T01:14:35.629Z,9.91
2022-10-17T01:15:35.629Z,9.92
2022-10-17T01:16:35.631Z,9.89
2022-10-17T01:17:35.597Z,9.89
2022-10-17T01:18:35.583Z,9.91
2022-10-17T01:19:35.604Z,9.93
2022-10-17T01:20:35.575Z,9.99
2022-10-17T01:21:35.554Z,9.86
2022-10-17T01:22:35.542Z,9.98
2022-10-17T01:23:35.531Z,9.92
2022-10-17T01:24:35.520Z,9.96
2022-10-17T01:25:35.599Z,9.96
2022-10-17T01:26:35.499Z,9.95
2022-10-17T01:27:35.491Z,9.89
2022-10-17T01:28:35.617Z,9.91
2022-10-17T01:29:35.467Z,9.93
2022-10-17T01:30:35.471Z,9.98
2022-10-17T01:31:35.534Z,9.92
2022-10-17T01:32:35.462Z,9.96
2022-10-17T01:33:35.427Z,10.02
2022-10-17T01:34:35.416Z,10.04
2022-10-17T01:35:35.404Z,9.85
2022-10-17T01:36:35.501Z,9.86
2022-10-17T01:37:35.391Z,10.01
2022-10-17T01:38:35.368Z,9.91
2022-10-17T01:39:36.980Z,9.96
2022-10-17T01:40:35.348Z,9.96
2022-10-17T01:41:35.341Z,9.93
2022-10-17T01:42:35.343Z,9.83
2022-10-17T01:43:35.382Z,9.91
2022-10-17T01:44:35.307Z,9.83
2022-10-17T01:45:35.299Z,9.81
2022-10-17T01:46:35.289Z,9.86
2022-10-17T01:47:35.286Z,9.89
2022-10-17T01:48:35.293Z,9.93
2022-10-17T01:49:35.326Z,9.88
2022-10-17T01:50:35.242Z,9.75
2022-10-17T01:51:35.238Z,9.88
2022-10-17T01:52:35.317Z,9.75
2022-10-17T01:53:35.219Z,9.62
2022-10-17T01:54:35.196Z,9.68
2022-10-17T01:55:35.218Z,9.65
2022-10-17T01:56:35.179Z,9.75
2022-10-17T01:57:35.170Z,9.74
2022-10-17T01:58:35.167Z,9.71
2022-10-17T01:59:35.151Z,9.68
2022-10-17T02:00:35.169Z,9.67
2022-10-17T02:01:35.264Z,9.73
2022-10-17T02:02:35.111Z,9.77
2022-10-17T02:03:35.104Z,9.74
2022-10-17T02:04:35.132Z,9.77
2022-10-17T02:05:35.083Z,9.70
2022-10-17T02:06:35.071Z,9.71
2022-10-17T02:07:35.093Z,9.77
2022-10-17T02:08:35.051Z,9.77
2022-10-17T02:09:35.051Z,9.60
2022-10-17T02:10:35.085Z,9.60
2022-10-17T02:11:35.019Z,9.58
2022-10-17T02:12:35.008Z,9.68
2022-10-17T02:13:34.998Z,9.59
2022-10-17T02:14:35.070Z,9.62
2022-10-17T02:15:34.974Z,9.60
2022-10-17T02:16:34.972Z,9.55
2022-10-17T02:17:35.066Z,9.59
2022-10-17T02:18:34.941Z,9.50
2022-10-17T02:19:34.938Z,9.52
2022-10-17T02:20:34.967Z,9.56
2022-10-17T02:21:34.908Z,9.52
2022-10-17T02:22:34.895Z,9.53
2022-10-17T02:23:34.900Z,9.55
2022-10-17T02:24:34.873Z,9.55
2022-10-17T02:25:34.861Z,9.62
2022-10-17T02:26:34.906Z,9.59
2022-10-17T02:27:34.851Z,9.59
2022-10-17T02:28:35.033Z,9.52
2022-10-17T02:29:34.834Z,9.50
2022-10-17T02:30:34.808Z,9.55
2022-10-17T02:31:34.804Z,9.53
2022-10-17T02:32:34.884Z,9.60
2022-10-17T02:33:34.777Z,9.55
2022-10-17T02:34:34.775Z,9.55
2022-10-17T02:35:34.754Z,9.55
2022-10-17T02:36:34.770Z,9.56
2022-10-17T02:37:34.733Z,9.58
2022-10-17T02:38:34.763Z,9.55
2022-10-17T02:39:34.722Z,9.49
2022-10-17T02:40:34.700Z,9.65
2022-10-17T02:41:34.696Z,9.58
2022-10-17T02:42:34.678Z,9.70
2022-10-17T02:43:34.669Z,9.63
2022-10-17T02:44:34.742Z,9.56
2022-10-17T02:45:34.672Z,9.50
2022-10-17T02:46:34.636Z,9.58
2022-10-17T02:47:34.627Z,9.58
2022-10-17T02:48:34.661Z,9.41
2022-10-17T02:49:34.613Z,9.49
2022-10-17T02:50:34.647Z,9.49
2022-10-17T02:51:34.588Z,9.52
2022-10-17T02:52:34.609Z,9.52
2022-10-17T02:53:34.592Z,9.38
2022-10-17T02:54:34.560Z,9.31
2022-10-17T02:55:34.544Z,9.31
2022-10-17T02:56:34.576Z,9.40
2022-10-17T02:57:34.533Z,9.37
2022-10-17T02:58:34.514Z,9.30
2022-10-17T03:00:34.501Z,9.34
2022-10-17T03:01:34.512Z,9.30
2022-10-17T03:02:34.526Z,9.34
2022-10-17T03:03:34.462Z,9.38
2022-10-17T03:04:34.446Z,9.45
2022-10-17T03:05:34.452Z,9.50
2022-10-17T03:06:34.449Z,9.49
2022-10-17T03:07:34.412Z,9.42
2022-10-17T03:08:34.507Z,9.32
2022-10-17T03:09:34.394Z,9.35
2022-10-17T03:10:34.382Z,9.41
2022-10-17T03:11:34.374Z,9.40
2022-10-17T03:12:34.374Z,9.40
2022-10-17T03:13:36.324Z,9.32
2022-10-17T03:14:35.436Z,9.30
2022-10-17T03:15:34.329Z,9.34
2022-10-17T03:16:34.321Z,9.44
2022-10-17T03:17:34.363Z,9.34
2022-10-17T03:18:34.311Z,9.38
2022-10-17T03:19:34.285Z,9.34
2022-10-17T03:20:34.290Z,9.44
2022-10-17T03:21:34.265Z,9.48
2022-10-17T03:22:34.360Z,9.58
2022-10-17T03:23:34.244Z,9.59
2022-10-17T03:24:34.260Z,9.65
2022-10-17T03:25:34.228Z,9.53
2022-10-17T03:26:34.355Z,9.58
2022-10-17T03:27:34.199Z,9.62
2022-10-17T03:28:34.307Z,9.77
2022-10-17T03:29:34.179Z,9.70
2022-10-17T03:30:34.166Z,9.71
2022-10-17T03:31:34.159Z,9.65
2022-10-17T03:32:34.161Z,9.58
2022-10-17T03:33:34.138Z,9.56
2022-10-17T03:34:34.137Z,9.60
2022-10-17T03:35:34.116Z,9.59
2022-10-17T03:36:34.101Z,9.62
2022-10-17T03:37:34.098Z,9.56
2022-10-17T03:38:34.163Z,9.55
2022-10-17T03:39:34.070Z,9.44
2022-10-17T03:40:34.099Z,9.35
2022-10-17T03:41:34.045Z,9.50
2022-10-17T03:42:34.035Z,9.49
2022-10-17T03:43:34.026Z,9.67
2022-10-17T03:44:34.071Z,9.60
2022-10-17T03:45:34.000Z,9.60
2022-10-17T03:46:34.003Z,9.63
2022-10-17T03:47:33.984Z,9.67
2022-10-17T03:48:33.984Z,9.63
2022-10-17T03:49:33.960Z,9.59
2022-10-17T03:50:34.007Z,9.60
2022-10-17T03:51:33.934Z,9.59
2022-10-17T03:52:33.940Z,9.62
2022-10-17T03:53:33.917Z,9.62
2022-10-17T03:54:33.910Z,9.48
2022-10-17T03:55:33.901Z,9.48
2022-10-17T03:56:33.931Z,9.49
2022-10-17T03:57:33.874Z,9.44
2022-10-17T03:58:33.878Z,9.41
2022-10-17T03:59:33.851Z,9.41
2022-10-17T04:00:33.840Z,9.37
2022-10-17T04:01:33.946Z,9.40
2022-10-17T04:02:33.828Z,9.34
2022-10-17T04:03:33.808Z,9.32
2022-10-17T04:04:34.227Z,9.40
2022-10-17T04:05:33.790Z,9.34
2022-10-17T04:06:33.779Z,9.15
2022-10-17T04:07:33.769Z,9.24
2022-10-17T04:08:33.761Z,9.16
2022-10-17T04:09:33.741Z,9.17
2022-10-17T04:10:33.842Z,9.38
2022-10-17T04:11:33.721Z,9.42
2022-10-17T04:12:33.741Z,9.42
2022-10-17T04:13:33.699Z,9.49
2022-10-17T04:14:33.756Z,9.42
2022-10-17T04:15:33.683Z,9.52
2022-10-17T04:16:33.674Z,9.52
2022-10-17T04:17:37.301Z,9.56
2022-10-17T04:18:33.649Z,9.63
2022-10-17T04:19:33.637Z,9.50
2022-10-17T04:20:33.691Z,9.62
2022-10-17T04:21:33.616Z,9.53
2022-10-17T04:22:33.618Z,9.60
2022-10-17T04:23:33.589Z,9.53
2022-10-17T04:24:33.583Z,9.52
2022-10-17T04:25:36.084Z,9.55
2022-10-17T04:26:33.703Z,9.52
2022-10-17T04:27:33.551Z,9.52
2022-10-17T04:28:33.741Z,9.52
2022-10-17T04:29:33.534Z,9.53
2022-10-17T04:30:33.514Z,9.45
2022-10-17T04:31:33.502Z,9.42
2022-10-17T04:32:33.533Z,9.44
2022-10-17T04:33:33.497Z,9.52
2022-10-17T04:34:33.473Z,9.56
2022-10-17T04:35:33.462Z,9.56
2022-10-17T04:36:33.453Z,9.56
2022-10-17T04:37:33.445Z,9.45
2022-10-17T04:38:33.500Z,9.44
2022-10-17T04:39:33.428Z,9.41
2022-10-17T04:40:33.405Z,9.42
2022-10-17T04:41:33.394Z,9.42
2022-10-17T04:42:33.389Z,9.41
2022-10-17T04:43:33.377Z,9.42
2022-10-17T04:44:33.419Z,9.40
2022-10-17T04:45:33.366Z,9.34
2022-10-17T04:46:33.342Z,9.26
2022-10-17T04:47:33.334Z,9.30
2022-10-17T04:48:33.325Z,9.34
2022-10-17T04:49:33.355Z,9.35
2022-10-17T04:50:33.364Z,9.30
2022-10-17T04:51:33.304Z,9.42
2022-10-17T04:52:33.282Z,9.26
2022-10-17T04:53:33.268Z,9.10
2022-10-17T04:54:33.259Z,9.22
2022-10-17T04:55:33.245Z,9.17
2022-10-17T04:56:33.298Z,9.23
2022-10-17T04:57:33.235Z,9.16
2022-10-17T04:58:33.215Z,9.13
2022-10-17T04:59:33.203Z,9.22
2022-10-17T05:00:33.307Z,9.30
2022-10-17T05:01:33.185Z,9.20
2022-10-17T05:02:33.274Z,9.31
2022-10-17T05:03:33.164Z,9.32
2022-10-17T05:04:33.154Z,9.30
2022-10-17T05:05:33.153Z,9.48
2022-10-17T05:06:33.134Z,9.44
2022-10-17T05:07:33.117Z,9.52
2022-10-17T05:08:33.162Z,9.42
2022-10-17T05:09:33.095Z,9.42
2022-10-17T05:10:33.095Z,9.53
2022-10-17T05:11:33.075Z,9.50
2022-10-17T05:12:33.067Z,9.48
2022-10-17T05:13:33.054Z,9.44
2022-10-17T05:14:33.107Z,9.45
2022-10-17T05:15:33.038Z,9.45
2022-10-17T05:16:33.046Z,9.37
2022-10-17T05:17:33.008Z,9.48
2022-10-17T05:18:32.998Z,9.41
2022-10-17T05:19:33.001Z,9.52
2022-10-17T05:20:33.012Z,9.50
2022-10-17T05:22:33.462Z,9.58
2022-10-17T05:23:32.949Z,9.48
2022-10-17T05:24:32.932Z,9.48
2022-10-17T05:25:32.931Z,9.44
2022-10-17T05:26:32.975Z,9.59
2022-10-17T05:27:32.901Z,9.60
2022-10-17T05:28:32.982Z,9.55
2022-10-17T05:29:32.879Z,9.55
2022-10-17T05:30:35.282Z,9.55
2022-10-17T05:31:32.867Z,9.58
2022-10-17T05:32:32.895Z,9.50
2022-10-17T05:33:32.839Z,9.44
2022-10-17T05:34:32.841Z,9.49
2022-10-17T05:35:32.825Z,9.37
2022-10-17T05:36:32.804Z,9.38
2022-10-17T05:37:32.799Z,9.45
2022-10-17T05:38:32.847Z,9.34
2022-10-17T05:39:32.981Z,9.38
2022-10-17T05:40:32.776Z,9.35
2022-10-17T05:41:32.752Z,9.35
2022-10-17T05:42:33.275Z,9.40
2022-10-17T05:43:32.734Z,9.49
2022-10-17T05:44:32.922Z,9.52
2022-10-17T05:45:32.709Z,9.55
2022-10-17T05:46:32.702Z,9.56
2022-10-17T05:47:33.071Z,9.49
2022-10-17T05:48:32.699Z,9.49
2022-10-17T05:49:43.912Z,9.42
2022-10-17T05:50:33.723Z,9.48
2022-10-17T05:51:32.732Z,9.58
2022-10-17T05:52:32.956Z,9.50
2022-10-17T05:53:32.629Z,9.58
2022-10-17T05:54:32.612Z,9.52
2022-10-17T05:55:32.600Z,9.56
2022-10-17T05:56:32.659Z,9.63
2022-10-17T05:57:32.578Z,9.62
2022-10-17T05:58:49.375Z,9.59
2022-10-17T05:59:33.558Z,9.60
2022-10-17T06:00:32.600Z,9.62
2022-10-17T06:01:32.619Z,9.60
2022-10-17T06:02:33.236Z,9.60
2022-10-17T06:03:32.528Z,9.59
2022-10-17T06:04:32.527Z,9.67
2022-10-17T06:05:32.492Z,9.65
2022-10-17T06:06:32.480Z,9.58
2022-10-17T06:07:32.471Z,9.60
2022-10-17T06:08:32.554Z,9.53
2022-10-17T06:09:32.573Z,9.73
2022-10-17T06:10:32.441Z,9.73
2022-10-17T06:11:32.430Z,9.65
2022-10-17T06:12:32.480Z,9.60
2022-10-17T06:13:32.409Z,9.59
2022-10-17T06:14:32.462Z,9.65
2022-10-17T06:15:32.387Z,9.65
2022-10-17T06:16:32.377Z,9.55
2022-10-17T06:17:32.362Z,9.60
2022-10-17T06:18:32.352Z,9.65
2022-10-17T06:19:32.361Z,9.75
2022-10-17T06:20:32.360Z,9.58
2022-10-17T06:21:32.327Z,9.59
2022-10-17T06:22:32.493Z,9.59
2022-10-17T06:23:32.298Z,9.70
2022-10-17T06:24:32.287Z,9.65
2022-10-17T06:25:32.286Z,9.62
2022-10-17T06:26:32.292Z,9.58
2022-10-17T06:27:32.255Z,9.62
2022-10-17T06:28:32.315Z,9.63
2022-10-17T06:29:32.237Z,9.60
2022-10-17T06:30:32.221Z,9.58
2022-10-17T06:31:32.235Z,9.58
2022-10-17T06:32:32.539Z,9.67
2022-10-17T06:33:32.193Z,9.74
2022-10-17T06:34:32.183Z,9.62
2022-10-17T06:35:32.172Z,9.75
2022-10-17T06:36:32.184Z,9.68
2022-10-17T06:37:35.462Z,9.71
2022-10-17T06:38:32.194Z,9.80
2022-10-17T06:39:32.129Z,9.81
2022-10-17T06:40:32.118Z,9.91
2022-10-17T06:41:32.104Z,9.81
2022-10-17T06:42:32.091Z,9.83
2022-10-17T06:43:32.096Z,9.83
2022-10-17T06:44:32.166Z,9.93
2022-10-17T06:45:32.059Z,9.86
2022-10-17T06:46:32.057Z,9.78
2022-10-17T06:47:32.400Z,9.91
2022-10-17T06:48:32.025Z,9.89
2022-10-17T06:49:32.034Z,9.92
2022-10-17T06:50:32.043Z,9.78
2022-10-17T06:51:32.004Z,9.85
2022-10-17T06:52:32.009Z,9.92
2022-10-17T06:53:31.976Z,9.86
2022-10-17T06:54:31.980Z,9.86
2022-10-17T06:55:31.961Z,9.80
2022-10-17T06:56:32.047Z,9.98
2022-10-17T06:57:32.237Z,9.96
2022-10-17T06:58:31.918Z,9.93
2022-10-17T06:59:31.966Z,9.98
2022-10-17T07:00:31.943Z,10.06
2022-10-17T07:01:31.885Z,10.07
2022-10-17T07:02:32.280Z,10.04
2022-10-17T07:03:31.866Z,9.99
2022-10-17T07:04:31.856Z,10.13
2022-10-17T07:05:31.845Z,10.31
2022-10-17T07:06:31.845Z,10.42
2022-10-17T07:07:32.021Z,10.32
2022-10-17T07:08:31.874Z,10.28
2022-10-17T07:09:31.799Z,10.39
2022-10-17T07:10:31.794Z,10.36
2022-10-17T07:11:31.780Z,10.39
2022-10-17T07:12:31.768Z,10.57
2022-10-17T07:13:35.534Z,10.49
2022-10-17T07:14:32.761Z,10.57
2022-10-17T07:15:31.741Z,10.93
2022-10-17T07:16:31.739Z,11.44
2022-10-17T07:17:31.938Z,12.03
2022-10-17T07:18:31.710Z,12.66
2022-10-17T07:19:31.696Z,13.04
2022-10-17T07:20:31.756Z,13.16
2022-10-17T07:21:35.226Z,13.35
2022-10-17T07:22:32.671Z,13.54
2022-10-17T07:23:31.647Z,13.79
2022-10-17T07:24:31.705Z,14.17
2022-10-17T07:25:33.275Z,14.52
2022-10-17T07:26:31.674Z,14.83
2022-10-17T07:27:31.924Z,15.03
2022-10-17T07:28:31.637Z,15.28
2022-10-17T07:29:31.585Z,15.66
2022-10-17T07:30:31.569Z,15.62
2022-10-17T07:31:31.560Z,15.64
2022-10-17T07:32:31.558Z,15.59
2022-10-17T07:33:31.549Z,15.88
2022-10-17T07:34:31.527Z,16.22
2022-10-17T07:35:31.528Z,16.44
2022-10-17T07:36:31.522Z,16.72
2022-10-17T07:37:32.028Z,16.48
2022-10-17T07:38:31.543Z,15.74
2022-10-17T07:39:31.472Z,15.62
2022-10-17T07:40:31.487Z,15.56
2022-10-17T07:41:31.450Z,15.56
2022-10-17T07:42:31.493Z,15.38
2022-10-17T07:43:31.432Z,15.31
2022-10-17T07:44:31.476Z,14.86
2022-10-17T07:45:31.418Z,14.67
2022-10-17T07:46:31.395Z,14.94
2022-10-17T07:47:31.799Z,15.25
2022-10-17T07:48:31.370Z,15.64
2022-10-17T07:49:31.374Z,15.58
2022-10-17T07:50:31.420Z,15.80
2022-10-17T07:51:31.343Z,15.74
2022-10-17T07:52:33.946Z,15.53
2022-10-17T07:53:31.320Z,15.35
2022-10-17T07:54:31.313Z,15.56
2022-10-17T07:55:31.308Z,15.76
2022-10-17T07:56:31.309Z,15.67
2022-10-17T07:57:31.281Z,15.80
2022-10-17T07:58:31.261Z,15.81
2022-10-17T07:59:31.250Z,15.71
2022-10-17T08:00:31.420Z,15.81
2022-10-17T08:01:31.229Z,15.64
2022-10-17T08:02:31.654Z,15.44
2022-10-17T08:03:31.233Z,15.09
2022-10-17T08:04:31.194Z,15.04
2022-10-17T08:05:31.192Z,15.31
2022-10-17T08:06:31.176Z,15.60
2022-10-17T08:07:31.269Z,15.41
2022-10-17T08:08:31.149Z,15.19
2022-10-17T08:09:31.163Z,15.33
2022-10-17T08:10:31.132Z,15.11
2022-10-17T08:11:31.169Z,15.40
2022-10-17T08:12:31.633Z,15.20
2022-10-17T08:13:31.110Z,15.38
2022-10-17T08:14:31.084Z,15.78
2022-10-17T08:15:32.054Z,16.33
2022-10-17T08:16:31.065Z,16.62
2022-10-17T08:17:31.052Z,16.91
2022-10-17T08:18:31.041Z,16.95
2022-10-17T08:19:31.047Z,16.72
2022-10-17T08:20:31.077Z,16.55
2022-10-17T08:21:31.008Z,16.25
2022-10-17T08:22:31.646Z,16.27
2022-10-17T08:23:30.988Z,16.72
2022-10-17T08:24:30.975Z,16.73
2022-10-17T08:25:30.977Z,16.91
2022-10-17T08:26:30.964Z,16.81
2022-10-17T08:27:30.942Z,17.21
2022-10-17T08:28:31.030Z,17.07
2022-10-17T08:29:30.939Z,16.92
2022-10-17T08:30:30.916Z,17.14
2022-10-17T08:31:30.898Z,17.53
2022-10-17T08:32:31.381Z,17.81
2022-10-17T08:33:30.888Z,17.79
2022-10-17T08:34:30.980Z,17.43
2022-10-17T08:35:30.865Z,17.47
2022-10-17T08:36:30.845Z,17.43
2022-10-17T08:37:31.356Z,17.54
2022-10-17T08:38:34.694Z,17.65
2022-10-17T08:39:30.816Z,17.83
2022-10-17T08:40:30.799Z,17.79
2022-10-17T08:41:30.800Z,17.86
2022-10-17T08:42:30.775Z,17.58
2022-10-17T08:43:35.196Z,17.77
2022-10-17T08:44:30.801Z,18.32
2022-10-17T08:45:30.739Z,18.41
2022-10-17T08:46:30.749Z,18.19
2022-10-17T08:47:31.104Z,18.07
2022-10-17T08:48:30.709Z,18.38
2022-10-17T08:49:30.702Z,18.68
2022-10-17T08:50:30.700Z,19.01
2022-10-17T08:51:30.688Z,18.97
2022-10-17T08:52:30.662Z,18.62
2022-10-17T08:53:30.653Z,18.59
2022-10-17T08:54:30.647Z,18.72
2022-10-17T08:57:54.396Z,17.94
2022-10-17T08:58:54.387Z,18.09
2022-10-17T08:59:54.396Z,17.66
2022-10-17T09:00:54.363Z,17.68
2022-10-17T09:01:56.588Z,17.91
2022-10-17T09:02:54.458Z,17.79
2022-10-17T09:03:54.328Z,17.43
2022-10-17T09:04:54.322Z,16.85
2022-10-17T09:05:54.305Z,16.72
2022-10-17T09:06:54.294Z,16.91
2022-10-17T09:07:54.288Z,16.80
2022-10-17T09:08:54.284Z,16.92
2022-10-17T09:09:54.345Z,17.20
2022-10-17T09:10:54.253Z,17.47
2022-10-17T09:11:54.236Z,17.66
2022-10-17T09:12:54.260Z,17.76
2022-10-17T09:13:54.217Z,17.92
2022-10-17T09:14:54.219Z,18.13
2022-10-17T09:15:54.250Z,18.01
2022-10-17T09:16:54.197Z,18.13
2022-10-17T09:17:54.178Z,17.80
2022-10-17T09:18:54.167Z,17.66
2022-10-17T09:19:54.161Z,17.46
2022-10-17T09:20:54.144Z,17.68
2022-10-17T09:21:54.132Z,17.91
2022-10-17T09:22:54.166Z,17.91
2022-10-17T09:23:59.674Z,18.23
2022-10-17T09:24:55.107Z,18.11
2022-10-17T09:25:54.088Z,18.07
2022-10-17T09:26:54.074Z,18.44
2022-10-17T09:27:54.066Z,18.41
2022-10-17T09:28:54.111Z,18.38
2022-10-17T09:29:54.059Z,18.34
2022-10-17T09:30:54.050Z,18.32
2022-10-17T09:31:54.063Z,18.38
2022-10-17T09:32:54.010Z,18.32
2022-10-17T09:33:55.045Z,18.38
2022-10-17T09:34:53.998Z,18.42
2022-10-17T09:35:53.999Z,18.38
2022-10-17T09:36:53.971Z,18.46
2022-10-17T09:37:54.058Z,18.86
2022-10-17T09:38:53.948Z,18.75
2022-10-17T09:39:53.939Z,18.99
2022-10-17T09:40:56.957Z,18.91
2022-10-17T09:41:53.927Z,19.15
2022-10-17T09:42:53.906Z,19.55
2022-10-17T09:43:53.896Z,19.68
2022-10-17T09:44:53.883Z,19.68
2022-10-17T09:45:53.871Z,19.83
2022-10-17T09:46:53.884Z,20.07
2022-10-17T09:47:53.887Z,19.85
2022-10-17T09:48:53.898Z,19.68
2022-10-17T09:49:53.829Z,19.32
2022-10-17T09:51:02.646Z,19.53
2022-10-17T09:51:54.821Z,19.71
2022-10-17T09:52:53.804Z,19.67
2022-10-17T09:53:53.784Z,19.30
2022-10-17T09:54:53.778Z,19.01
2022-10-17T09:55:53.775Z,18.96
2022-10-17T09:56:53.759Z,19.01
2022-10-17T09:57:53.756Z,19.02
2022-10-17T09:58:53.752Z,19.39
2022-10-17T09:59:53.717Z,19.55
2022-10-17T10:00:53.780Z,19.65
2022-10-17T10:01:53.697Z,19.65
2022-10-17T10:02:53.688Z,19.34
2022-10-17T10:03:53.713Z,19.24
2022-10-17T10:05:06.416Z,19.72
2022-10-17T10:05:54.654Z,20.08
2022-10-17T10:06:53.642Z,20.08
2022-10-17T10:07:53.631Z,19.86
2022-10-17T10:08:53.655Z,19.82
2022-10-17T10:09:53.612Z,20.15
2022-10-17T10:10:53.617Z,20.16
2022-10-17T10:11:53.589Z,20.20
2022-10-17T10:12:53.583Z,20.19
2022-10-17T10:13:53.570Z,20.17
2022-10-17T10:14:55.412Z,20.37
2022-10-17T10:15:53.545Z,20.64
2022-10-17T10:16:53.592Z,20.46
2022-10-17T10:17:53.523Z,20.25
2022-10-17T10:18:53.519Z,19.98
2022-10-17T10:19:53.526Z,19.72
2022-10-17T10:20:53.506Z,20.02
2022-10-17T10:21:53.488Z,20.35
2022-10-17T10:22:55.924Z,20.56
2022-10-17T10:23:53.457Z,20.30
2022-10-17T10:24:53.450Z,20.41
2022-10-17T10:25:53.453Z,20.64
2022-10-17T10:26:53.427Z,20.60
2022-10-17T10:27:53.432Z,20.44
2022-10-17T10:28:53.530Z,20.87
2022-10-17T10:29:53.396Z,20.83
2022-10-17T10:30:53.385Z,20.64
2022-10-17T10:31:53.377Z,20.40
2022-10-17T10:32:53.362Z,20.15
2022-10-17T10:33:56.787Z,19.92
2022-10-17T10:34:53.374Z,19.95
2022-10-17T10:35:53.357Z,20.37
2022-10-17T10:36:53.331Z,20.88
2022-10-17T10:37:53.309Z,20.50
2022-10-17T10:38:53.302Z,20.33
2022-10-17T10:39:53.292Z,20.58
2022-10-17T10:40:53.286Z,20.26
2022-10-17T10:41:53.286Z,20.50
2022-10-17T10:42:53.269Z,20.54
2022-10-17T10:43:53.255Z,20.42
2022-10-17T10:44:53.257Z,20.61
2022-10-17T10:45:53.239Z,20.60
2022-10-17T10:46:53.229Z,20.82
2022-10-17T10:47:53.199Z,21.21
2022-10-17T10:48:53.194Z,21.34
2022-10-17T10:49:53.197Z,21.51
2022-10-17T10:50:53.172Z,21.40
2022-10-17T10:51:53.193Z,21.42
2022-10-17T10:52:53.149Z,21.19
2022-10-17T10:53:53.137Z,21.33
2022-10-17T10:54:53.129Z,20.98
2022-10-17T10:55:53.114Z,20.79
2022-10-17T10:56:53.566Z,20.88
2022-10-17T10:57:53.089Z,20.97
2022-10-17T10:58:53.091Z,21.53
2022-10-17T10:59:53.072Z,21.61
2022-10-17T11:00:53.121Z,21.05
2022-10-17T11:01:53.048Z,21.09
2022-10-17T11:02:53.047Z,21.08
2022-10-17T11:03:53.030Z,21.22
2022-10-17T11:04:53.028Z,21.26
2022-10-17T11:05:53.003Z,21.40
2022-10-17T11:06:52.991Z,21.67
2022-10-17T11:07:53.016Z,21.61
2022-10-17T11:08:52.988Z,21.30
2022-10-17T11:09:52.961Z,21.28
2022-10-17T11:10:53.005Z,21.46
2022-10-17T11:11:52.941Z,21.21
2022-10-17T11:12:52.928Z,20.85
2022-10-17T11:13:54.127Z,20.97
2022-10-17T11:14:52.924Z,20.83
2022-10-17T11:15:52.920Z,20.98
2022-10-17T11:16:52.888Z,21.21
2022-10-17T11:17:52.879Z,21.30
2022-10-17T11:18:52.865Z,21.27
2022-10-17T11:19:52.861Z,20.61
2022-10-17T11:20:52.854Z,20.82
2022-10-17T11:21:52.856Z,20.91
2022-10-17T11:22:52.821Z,20.96
2022-10-17T11:23:52.845Z,20.69
2022-10-17T11:24:52.898Z,20.42
2022-10-17T11:25:52.792Z,20.51
2022-10-17T11:26:52.776Z,20.34
2022-10-17T11:27:52.853Z,20.16
2022-10-17T11:28:52.823Z,20.13
2022-10-17T11:29:52.742Z,20.27
2022-10-17T11:30:52.850Z,20.61
2022-10-17T11:31:52.719Z,20.61
2022-10-17T11:32:52.712Z,20.35
2022-10-17T11:33:52.700Z,20.35
2022-10-17T11:34:52.690Z,20.38
2022-10-17T11:35:52.687Z,20.31
2022-10-17T11:36:52.679Z,20.34
2022-10-17T11:37:52.655Z,20.46
2022-10-17T11:38:52.645Z,20.61
2022-10-17T11:39:52.681Z,20.69
2022-10-17T11:40:52.634Z,20.44
2022-10-17T11:41:55.198Z,20.64
2022-10-17T11:42:52.597Z,20.87
2022-10-17T11:43:52.591Z,20.37
2022-10-17T11:44:52.582Z,20.63
2022-10-17T11:45:52.575Z,20.63
2022-10-17T11:46:52.575Z,20.34
2022-10-17T11:47:52.546Z,20.54
2022-10-17T11:48:52.537Z,20.79
2022-10-17T11:49:52.873Z,21.06
2022-10-17T11:52:02.417Z,20.37
2022-10-17T11:52:57.253Z,20.72
2022-10-17T11:53:52.482Z,20.81
2022-10-17T11:54:52.479Z,20.81
2022-10-17T11:55:52.488Z,20.44
2022-10-17T11:56:52.450Z,20.60
2022-10-17T11:57:52.509Z,20.48
2022-10-17T11:58:52.431Z,20.79
2022-10-17T11:59:52.416Z,20.98
2022-10-17T12:00:52.405Z,21.34
2022-10-17T12:01:52.394Z,21.09
2022-10-17T12:02:52.383Z,21.08
2022-10-17T12:03:52.405Z,21.21
2022-10-17T12:04:52.405Z,21.49
2022-10-17T12:05:52.349Z,21.53
2022-10-17T12:06:52.343Z,21.33
2022-10-17T12:07:53.030Z,21.26
2022-10-17T12:08:52.331Z,21.19
2022-10-17T12:09:52.332Z,20.93
2022-10-17T12:10:52.296Z,20.94
2022-10-17T12:11:52.313Z,20.91
2022-10-17T12:12:52.271Z,20.66
2022-10-17T12:13:52.265Z,21.09
2022-10-17T12:14:52.262Z,21.18
2022-10-17T12:15:52.245Z,21.24
2022-10-17T12:16:52.251Z,21.34
2022-10-17T12:17:52.223Z,21.67
2022-10-17T12:18:52.209Z,21.71
2022-10-17T12:19:52.207Z,21.34
2022-10-17T12:20:52.184Z,21.38
2022-10-17T12:21:52.177Z,21.37
2022-10-17T12:22:52.169Z,21.59
2022-10-17T12:23:52.161Z,21.99
2022-10-17T12:24:52.158Z,22.09
2022-10-17T12:25:52.129Z,22.08
2022-10-17T12:26:56.348Z,21.81
2022-10-17T12:27:52.133Z,21.89
2022-10-17T12:28:52.151Z,22.04
2022-10-17T12:29:52.092Z,21.85
2022-10-17T12:30:52.086Z,21.83
2022-10-17T12:31:52.079Z,21.71
2022-10-17T12:33:04.116Z,22.02
2022-10-17T12:33:53.049Z,22.05
2022-10-17T12:34:52.036Z,22.20
2022-10-17T12:35:52.024Z,22.14
2022-10-17T12:36:52.023Z,21.94
2022-10-17T12:37:52.998Z,21.75
2022-10-17T12:38:51.995Z,21.38
2022-10-17T12:39:51.979Z,21.22
2022-10-17T12:40:52.026Z,20.96
2022-10-17T12:41:51.956Z,21.19
2022-10-17T12:42:51.955Z,21.55
2022-10-17T12:44:51.937Z,21.42
2022-10-17T12:45:51.924Z,21.66
2022-10-17T12:46:51.913Z,21.71
2022-10-17T12:47:51.892Z,21.89
2022-10-17T12:48:51.881Z,21.86
2022-10-17T12:49:54.535Z,21.67
2022-10-17T12:50:51.859Z,21.85
2022-10-17T12:51:51.848Z,21.71
2022-10-17T12:53:51.834Z,21.63
2022-10-17T12:55:00.486Z,21.56
2022-10-17T12:55:52.807Z,21.42
2022-10-17T12:56:51.795Z,21.53
2022-10-17T12:57:51.791Z,21.85
2022-10-17T12:58:51.787Z,22.11
2022-10-17T12:59:52.187Z,22.33
2022-10-17T13:01:11.834Z,21.93
2022-10-17T13:01:52.785Z,22.29
2022-10-17T13:02:51.726Z,22.11
2022-10-17T13:03:51.718Z,21.93
2022-10-17T13:04:51.732Z,22.09
2022-10-17T13:05:51.698Z,22.19
2022-10-17T13:06:51.696Z,22.04
2022-10-17T13:07:51.675Z,22.12
2022-10-17T13:08:55.364Z,22.06
2022-10-17T13:09:52.760Z,22.12
2022-10-17T13:10:52.557Z,22.30
2022-10-17T13:11:51.688Z,22.14
2022-10-17T13:12:51.623Z,22.09